Back to top

Williston, ND weather

Sioulin Field International Airport, Williston, ND: 6/04/2020 03:51
Visibility10 statute milesclear sky
View 7-Day Forecast
Area Summary
Sky/CloudsSky Clear
Weather [last 24 hours]None
Pressure29.83 in.Hg (1010 hPa)
3-hour Pressure Tendency0.02362 in.Hg (0.8 hPa) Decreasing, then steady, or decreasing then decreasing more slowly
Dew Point32 °F (0 °C)
Relative Humidity51.8 %
Reading TimePrecipitation
6-hr ending 6/3@12:51Indeterminate
Temperature48.9 °F (9.4 °C)red thermometer
Reading TimeMinimum to Maximum Temperature
6-hr ending 6/4@00:5157 °F to 75.9 °F (13.9 °C to 24.4 °C)
6-hr ending 6/3@18:5173 °F to 81 °F (22.8 °C to 27.2 °C)
6-hr ending 6/3@12:5150 °F to 80.1 °F (10 °C to 26.7 °C)
24-hr ending 6/4@00:5150 °F to 81 °F (10 °C to 27.2 °C)
Wind0 MPH (0 KT) green arrow pointing at 0 degrees
Wind FromNorth (000 Degrees)
Rolling 24-hr Peak Wind42.6 MPH (37 KT) on 6/3@17:31
Rolling 24-hr Peak Wind FromWest/Northwest (290 Degrees)
Twilight Begins05:13Sunshine Yesterday
Sunrise05:54N/A
Sunset21:53
Twilight Ends22:34
METARKXWA 040851Z AUTO 00000KT 10SM CLR 09/00 A2983 RMK AO2 SLP945 T00940000 56008
Tags: